createdAt,value
2017-04-03T16:10:17.572Z,12.20
2017-04-03T16:11:17.380Z,12.10
2017-04-03T16:12:17.144Z,12.10
2017-04-03T16:13:17.823Z,12.10
2017-04-03T16:14:17.580Z,12.20
2017-04-03T16:15:16.669Z,12.10
2017-04-03T16:16:16.412Z,12.10
2017-04-03T16:17:16.121Z,12.10
2017-04-03T16:18:15.800Z,12.10
2017-04-03T16:19:15.548Z,12.00
2017-04-03T16:20:15.993Z,12.00
2017-04-03T16:21:16.071Z,12.10
2017-04-03T16:22:16.513Z,12.10
2017-04-03T16:23:16.248Z,12.10
2017-04-03T16:24:15.978Z,12.10
2017-04-03T16:25:16.527Z,12.00
2017-04-03T16:26:16.242Z,12.00
2017-04-03T16:27:16.016Z,12.00
2017-04-03T16:28:15.815Z,12.10
2017-04-03T16:29:15.549Z,12.10
2017-04-03T16:30:15.341Z,12.10
2017-04-03T16:31:15.076Z,12.20
2017-04-03T16:32:14.861Z,12.10
2017-04-03T16:33:14.510Z,12.10
2017-04-03T16:34:14.269Z,12.00
2017-04-03T16:35:13.965Z,12.00
2017-04-03T16:36:13.653Z,12.00
2017-04-03T16:37:13.332Z,12.00
2017-04-03T16:38:13.022Z,12.00
2017-04-03T16:39:12.689Z,12.10
2017-04-03T16:40:12.419Z,12.10
2017-04-03T16:41:12.155Z,12.10
2017-04-03T16:42:11.901Z,12.10
2017-04-03T16:43:11.564Z,12.10
2017-04-03T16:44:11.277Z,12.20
2017-04-03T16:45:10.973Z,12.20
2017-04-03T16:46:10.711Z,12.20
2017-04-03T16:47:10.405Z,12.10
2017-04-03T16:48:10.160Z,12.10
2017-04-03T16:49:09.864Z,12.10
2017-04-03T16:50:09.553Z,12.00
2017-04-03T16:51:09.328Z,12.00
2017-04-03T16:52:08.979Z,12.00
2017-04-03T16:53:09.977Z,11.90
2017-04-03T16:54:09.645Z,11.90
2017-04-03T16:55:09.406Z,11.90
2017-04-03T16:56:09.080Z,11.90
2017-04-03T16:57:08.757Z,11.90
2017-04-03T16:58:08.578Z,11.90
2017-04-03T16:59:08.418Z,11.80
2017-04-03T17:00:08.398Z,11.80
2017-04-03T17:01:08.552Z,11.80
2017-04-03T17:02:08.241Z,11.80
2017-04-03T17:03:08.192Z,11.70
2017-04-03T17:04:07.959Z,11.70
2017-04-03T17:05:08.458Z,11.70
2017-04-03T17:06:08.679Z,11.70
2017-04-03T17:07:09.417Z,11.70
2017-04-03T17:08:09.191Z,11.70
2017-04-03T17:09:09.196Z,11.70
2017-04-03T17:10:09.056Z,11.70
2017-04-03T17:11:08.847Z,11.70
2017-04-03T17:12:08.601Z,11.70
2017-04-03T17:13:08.419Z,11.60
2017-04-03T17:14:08.101Z,11.60
2017-04-03T17:15:08.663Z,11.60
2017-04-03T17:16:08.334Z,11.60
2017-04-03T17:17:08.063Z,11.60
2017-04-03T17:18:07.738Z,11.70
2017-04-03T17:19:07.864Z,11.60
2017-04-03T17:20:07.732Z,11.60
2017-04-03T17:21:07.542Z,11.60
2017-04-03T17:22:07.733Z,11.60
2017-04-03T17:23:07.732Z,11.60
2017-04-03T17:24:08.238Z,11.60
2017-04-03T17:25:08.716Z,11.60
2017-04-03T17:26:08.828Z,11.60
2017-04-03T17:27:09.993Z,11.60
2017-04-03T17:28:10.536Z,11.60
2017-04-03T17:29:10.321Z,11.60
2017-04-03T17:30:10.765Z,11.60
2017-04-03T17:31:10.561Z,11.70
2017-04-03T17:32:10.978Z,11.60
2017-04-03T17:33:10.687Z,11.60
2017-04-03T17:34:10.403Z,11.60
2017-04-03T17:35:10.089Z,11.60
2017-04-03T17:36:09.844Z,11.50
2017-04-03T17:37:10.365Z,11.50
2017-04-03T17:38:10.887Z,11.50
2017-04-03T17:39:10.618Z,11.40
2017-04-03T17:40:11.370Z,11.40
2017-04-03T17:41:11.578Z,11.50
2017-04-03T17:42:13.896Z,11.50
2017-04-03T17:43:16.951Z,11.50
2017-04-03T17:44:17.405Z,11.50
2017-04-03T17:45:17.153Z,11.60
2017-04-03T17:46:16.891Z,11.60
2017-04-03T17:47:16.688Z,11.60
2017-04-03T17:48:16.365Z,11.60
2017-04-03T17:49:16.183Z,11.50
2017-04-03T17:50:15.888Z,11.60
2017-04-03T17:51:15.862Z,11.60
2017-04-03T17:52:16.517Z,11.50
2017-04-03T17:53:16.278Z,11.60
2017-04-03T17:54:15.977Z,11.50
2017-04-03T17:55:15.653Z,11.50
2017-04-03T17:56:15.374Z,11.40
2017-04-03T17:57:15.109Z,11.40
2017-04-03T17:58:14.949Z,11.40
2017-04-03T17:59:14.731Z,11.50
2017-04-03T18:00:14.487Z,11.40
2017-04-03T18:01:15.057Z,11.40
2017-04-03T18:02:14.841Z,11.30
2017-04-03T18:03:14.554Z,11.40
2017-04-03T18:04:14.272Z,11.40
2017-04-03T18:05:14.055Z,11.50
2017-04-03T18:06:13.918Z,11.40
2017-04-03T18:07:14.338Z,11.40
2017-04-03T18:08:14.773Z,11.40
2017-04-03T18:09:15.259Z,11.50
2017-04-03T18:10:15.781Z,11.50
2017-04-03T18:11:15.516Z,11.40
2017-04-03T18:12:20.654Z,11.40
2017-04-03T18:13:21.096Z,11.40
2017-04-03T18:14:20.917Z,11.40
2017-04-03T18:15:21.547Z,11.40
2017-04-03T18:16:21.346Z,11.40
2017-04-03T18:17:21.750Z,11.40
2017-04-03T18:18:22.202Z,11.50
2017-04-03T18:19:21.952Z,11.50
2017-04-03T18:20:21.637Z,11.50
2017-04-03T18:21:21.326Z,11.50
2017-04-03T18:22:20.999Z,11.50
2017-04-03T18:23:20.653Z,11.50
2017-04-03T18:24:20.292Z,11.50
2017-04-03T18:25:19.999Z,11.40
2017-04-03T18:26:19.694Z,11.40
2017-04-03T18:27:19.381Z,11.40
2017-04-03T18:28:19.921Z,11.40
2017-04-03T18:29:20.473Z,11.40
2017-04-03T18:30:21.014Z,11.40
2017-04-03T18:31:21.508Z,11.40
2017-04-03T18:32:21.831Z,11.40
2017-04-03T18:33:22.411Z,11.40
2017-04-03T18:34:22.890Z,11.50
2017-04-03T18:35:22.673Z,11.50
2017-04-03T18:36:23.161Z,11.50
2017-04-03T18:37:22.882Z,11.50
2017-04-03T18:38:22.585Z,11.50
2017-04-03T18:39:22.279Z,11.50
2017-04-03T18:40:22.073Z,11.50
2017-04-03T18:41:21.808Z,11.50
2017-04-03T18:42:22.573Z,11.50
2017-04-03T18:43:22.344Z,11.50
2017-04-03T18:44:22.470Z,11.50
2017-04-03T18:45:22.244Z,11.50
2017-04-03T18:46:21.993Z,11.50
2017-04-03T18:47:21.864Z,11.60
2017-04-03T18:48:21.637Z,11.60
2017-04-03T18:49:21.393Z,11.60
2017-04-03T18:50:21.150Z,11.60
2017-04-03T18:51:20.933Z,11.60
2017-04-03T18:52:20.753Z,11.60
2017-04-03T18:53:20.485Z,11.60
2017-04-03T18:54:20.249Z,11.40
2017-04-03T18:55:19.910Z,11.50
2017-04-03T18:56:19.637Z,11.60
2017-04-03T18:57:20.146Z,11.60
2017-04-03T18:58:21.419Z,11.50
2017-04-03T18:59:21.318Z,11.40
2017-04-03T19:00:21.010Z,11.40
2017-04-03T19:01:20.774Z,11.40
2017-04-03T19:02:20.537Z,11.40
2017-04-03T19:03:20.320Z,11.40
2017-04-03T19:04:20.195Z,11.40
2017-04-03T19:05:20.726Z,11.30
2017-04-03T19:06:20.403Z,11.30
2017-04-03T19:07:20.922Z,11.30
2017-04-03T19:08:21.497Z,11.30
2017-04-03T19:09:21.515Z,11.20
2017-04-03T19:10:25.408Z,11.20
2017-04-03T19:11:25.075Z,11.30
2017-04-03T19:12:24.841Z,11.30
2017-04-03T19:13:24.557Z,11.20
2017-04-03T19:14:24.228Z,11.30
2017-04-03T19:15:25.093Z,11.20
2017-04-03T19:16:24.801Z,11.20
2017-04-03T19:17:24.802Z,11.10
2017-04-03T19:18:24.544Z,11.20
2017-04-03T19:19:24.197Z,11.20
2017-04-03T19:20:23.892Z,11.10
2017-04-03T19:21:23.725Z,11.10
2017-04-03T19:22:23.443Z,11.10
2017-04-03T19:23:23.201Z,11.00
2017-04-03T19:24:22.880Z,11.10
2017-04-03T19:25:22.641Z,11.10
2017-04-03T19:26:22.360Z,11.10
2017-04-03T19:27:22.058Z,11.10
2017-04-03T19:28:22.541Z,11.00
2017-04-03T19:29:22.377Z,11.10
2017-04-03T19:30:22.899Z,11.10
2017-04-03T19:31:29.791Z,11.10
2017-04-03T19:32:37.349Z,11.10
2017-04-03T19:33:40.190Z,11.10
2017-04-03T19:34:57.717Z,11.10
2017-04-03T19:36:01.225Z,11.00
2017-04-03T19:37:11.138Z,11.10
2017-04-03T19:38:15.524Z,11.00
2017-04-03T19:39:21.149Z,11.00
2017-04-03T19:40:29.455Z,11.00
2017-04-03T19:41:36.511Z,11.00
2017-04-03T19:42:45.864Z,11.00
2017-04-03T19:43:51.922Z,11.00
2017-04-03T19:45:00.635Z,11.00
2017-04-03T19:46:07.021Z,10.90
2017-04-03T19:47:18.995Z,10.90
2017-04-03T19:48:28.211Z,10.90
2017-04-03T19:49:35.093Z,10.90
2017-04-03T19:50:35.208Z,10.90
2017-04-03T19:51:34.986Z,11.00
2017-04-03T19:52:34.752Z,10.90
2017-04-03T19:53:34.504Z,10.90
2017-04-03T19:54:35.045Z,10.90
2017-04-03T19:55:34.981Z,10.90
2017-04-03T19:56:34.714Z,10.90
2017-04-03T19:57:35.186Z,10.90
2017-04-03T19:58:34.970Z,10.90
2017-04-03T19:59:34.793Z,10.90
2017-04-03T20:00:34.660Z,11.00
2017-04-03T20:01:34.474Z,10.90
2017-04-03T20:02:34.531Z,10.90
2017-04-03T20:03:34.992Z,10.90
2017-04-03T20:04:35.084Z,10.90
2017-04-03T20:05:34.996Z,10.90
2017-04-03T20:06:34.662Z,10.90
2017-04-03T20:07:34.291Z,10.90
2017-04-03T20:08:33.940Z,10.90
2017-04-03T20:09:43.128Z,10.80
2017-04-03T20:10:44.706Z,10.80
2017-04-03T20:11:44.472Z,10.80
2017-04-03T20:12:44.294Z,10.80
2017-04-03T20:13:44.012Z,10.70
2017-04-03T20:14:43.740Z,10.70
2017-04-03T20:15:43.545Z,10.80
2017-04-03T20:16:43.721Z,10.80
2017-04-03T20:17:43.955Z,10.80
2017-04-03T20:18:45.065Z,10.70
2017-04-03T20:19:45.536Z,10.70
2017-04-03T20:20:45.422Z,10.80
2017-04-03T20:21:45.730Z,10.70
2017-04-03T20:22:45.531Z,10.80
2017-04-03T20:23:46.058Z,10.80
2017-04-03T20:24:46.846Z,10.80
2017-04-03T20:25:48.040Z,10.80
2017-04-03T20:26:47.979Z,10.70
2017-04-03T20:27:47.765Z,10.70
2017-04-03T20:28:51.397Z,10.70
2017-04-03T20:29:51.162Z,10.70
2017-04-03T20:30:50.946Z,10.70
2017-04-03T20:31:50.698Z,10.70
2017-04-03T20:32:50.437Z,10.70
2017-04-03T20:33:50.365Z,10.70
2017-04-03T20:34:50.161Z,10.70
2017-04-03T20:35:50.077Z,10.60
2017-04-03T20:36:49.918Z,10.60
2017-04-03T20:37:49.816Z,10.60
2017-04-03T20:38:49.959Z,10.60
2017-04-03T20:39:50.535Z,10.60
2017-04-03T20:40:50.252Z,10.50
2017-04-03T20:41:49.925Z,10.50
2017-04-03T20:44:00.478Z,10.50
2017-04-03T20:45:00.259Z,10.60
2017-04-03T20:45:59.957Z,10.60
2017-04-03T20:46:59.671Z,10.60
2017-04-03T20:47:59.453Z,10.60
2017-04-03T20:48:59.228Z,10.60
2017-04-03T20:49:58.997Z,10.60
2017-04-03T20:50:58.690Z,10.60
2017-04-03T20:51:59.148Z,10.60
2017-04-03T20:52:58.871Z,10.60
2017-04-03T20:53:58.647Z,10.50
2017-04-03T20:54:58.458Z,10.50
2017-04-03T20:56:01.364Z,10.50
2017-04-03T20:57:01.116Z,10.50
2017-04-03T20:58:00.913Z,10.50
2017-04-03T20:59:00.744Z,10.50
2017-04-03T21:00:00.451Z,10.50
2017-04-03T21:01:00.172Z,10.50
2017-04-03T21:02:00.569Z,10.40
2017-04-03T21:03:00.364Z,10.40
2017-04-03T21:04:00.133Z,10.50
2017-04-03T21:04:59.854Z,10.50
2017-04-03T21:05:59.595Z,10.40
2017-04-03T21:06:59.310Z,10.50
2017-04-03T21:07:59.083Z,10.40
2017-04-03T21:08:58.885Z,10.40
2017-04-03T21:09:59.418Z,10.40
2017-04-03T21:10:59.159Z,10.40
2017-04-03T21:11:58.911Z,10.40
2017-04-03T21:12:58.605Z,10.40
2017-04-03T21:13:58.352Z,10.40
2017-04-03T21:14:58.874Z,10.40
2017-04-03T21:15:58.650Z,10.50
2017-04-03T21:16:58.360Z,10.40
2017-04-03T21:17:58.849Z,10.40
2017-04-03T21:18:58.659Z,10.50
2017-04-03T21:19:58.474Z,10.40
2017-04-03T21:20:58.226Z,10.40
2017-04-03T21:21:57.981Z,10.40
2017-04-03T21:22:57.726Z,10.40
2017-04-03T21:23:57.452Z,10.40
2017-04-03T21:24:57.204Z,10.40
2017-04-03T21:25:56.919Z,10.40
2017-04-03T21:26:56.727Z,10.40
2017-04-03T21:27:56.486Z,10.40
2017-04-03T21:28:56.241Z,10.40
2017-04-03T21:29:56.779Z,10.40
2017-04-03T21:30:56.571Z,10.40
2017-04-03T21:31:56.358Z,10.40
2017-04-03T21:32:56.857Z,10.30
2017-04-03T21:33:56.587Z,10.30
2017-04-03T21:34:56.289Z,10.30
2017-04-03T21:35:55.969Z,10.30
2017-04-03T21:36:55.656Z,10.30
2017-04-03T21:37:55.356Z,10.20
2017-04-03T21:38:55.767Z,10.20
2017-04-03T21:39:55.642Z,10.20
2017-04-03T21:40:55.327Z,10.20
2017-04-03T21:41:55.013Z,10.20
2017-04-03T21:42:54.648Z,10.20
2017-04-03T21:43:54.377Z,10.20
2017-04-03T21:44:54.756Z,10.20
2017-04-03T21:45:54.478Z,10.20
2017-04-03T21:46:54.143Z,10.10
2017-04-03T21:47:53.821Z,10.10
2017-04-03T21:48:53.511Z,10.10
2017-04-03T21:49:53.215Z,10.20
2017-04-03T21:50:52.951Z,10.10
2017-04-03T21:51:52.622Z,10.10
2017-04-03T21:52:53.012Z,10.00
2017-04-03T21:53:52.665Z,10.00
2017-04-03T21:54:52.372Z,10.00
2017-04-03T21:55:52.105Z,10.00
2017-04-03T21:56:52.497Z,10.00
2017-04-03T21:57:52.158Z,10.00
2017-04-03T21:58:51.829Z,10.00
2017-04-03T21:59:51.514Z,10.00
2017-04-03T22:00:51.191Z,10.00
2017-04-03T22:01:50.969Z,10.00
2017-04-03T22:02:50.661Z,10.00
2017-04-03T22:03:50.356Z,10.00
2017-04-03T22:04:50.777Z,9.90
2017-04-03T22:05:50.477Z,9.90
2017-04-03T22:06:50.134Z,9.90
2017-04-03T22:07:49.917Z,9.90
2017-04-03T22:08:50.385Z,9.90
2017-04-03T22:09:50.145Z,10.00
2017-04-03T22:10:49.873Z,10.00
2017-04-03T22:11:49.528Z,10.00
2017-04-03T22:12:50.018Z,10.00
2017-04-03T22:13:49.800Z,10.00
2017-04-03T22:14:49.580Z,10.00
2017-04-03T22:15:49.362Z,9.90
2017-04-03T22:16:49.046Z,10.00
2017-04-03T22:17:49.456Z,10.00
2017-04-03T22:18:50.020Z,10.00
2017-04-03T22:19:49.769Z,10.00
2017-04-03T22:20:49.532Z,10.00
2017-04-03T22:21:49.278Z,10.00
2017-04-03T22:22:49.745Z,10.00
2017-04-03T22:23:49.521Z,10.00
2017-04-03T22:24:49.276Z,10.00
2017-04-03T22:25:49.062Z,10.00
2017-04-03T22:26:48.862Z,10.00
2017-04-03T22:27:48.552Z,10.00
2017-04-03T22:28:48.308Z,10.00
2017-04-03T22:29:48.046Z,9.90
2017-04-03T22:30:47.887Z,9.90
2017-04-03T22:31:47.554Z,9.90
2017-04-03T22:32:47.260Z,9.90
2017-04-03T22:33:46.902Z,9.90
2017-04-03T22:34:46.612Z,10.00
2017-04-03T22:35:46.354Z,9.90
2017-04-03T22:36:46.142Z,9.90
2017-04-03T22:37:45.879Z,9.90
2017-04-03T22:38:45.544Z,9.90
2017-04-03T22:39:45.198Z,9.80
2017-04-03T22:40:44.923Z,9.80
2017-04-03T22:41:44.625Z,9.80
2017-04-03T22:42:44.336Z,9.80
2017-04-03T22:43:44.027Z,9.80
2017-04-03T22:44:43.871Z,9.80
2017-04-03T22:45:43.562Z,9.90
2017-04-03T22:46:43.277Z,9.80
2017-04-03T22:47:43.810Z,9.90
2017-04-03T22:48:43.531Z,9.90
2017-04-03T22:49:43.181Z,9.90
2017-04-03T22:50:42.932Z,9.90
2017-04-03T22:51:42.643Z,9.90
2017-04-03T22:52:42.366Z,9.90
2017-04-03T22:53:42.098Z,9.90
2017-04-03T22:54:42.552Z,9.90
2017-04-03T22:55:42.292Z,9.90
2017-04-03T22:56:41.992Z,9.90
2017-04-03T22:57:42.446Z,9.90
2017-04-03T22:58:42.245Z,9.90
2017-04-03T22:59:41.995Z,9.90
2017-04-03T23:00:41.781Z,9.90
2017-04-03T23:01:41.585Z,9.90
2017-04-03T23:02:41.372Z,10.00
2017-04-03T23:03:41.171Z,10.00
2017-04-03T23:04:40.921Z,10.00
2017-04-03T23:05:41.401Z,9.90
2017-04-03T23:06:41.158Z,10.00
2017-04-03T23:07:40.869Z,10.00
2017-04-03T23:08:40.669Z,10.00
2017-04-03T23:09:40.457Z,9.90
2017-04-03T23:10:40.241Z,9.90
2017-04-03T23:11:39.952Z,9.80
2017-04-03T23:12:39.650Z,9.90
2017-04-03T23:13:39.438Z,9.80
2017-04-03T23:14:39.188Z,9.80
2017-04-03T23:15:38.917Z,9.80
2017-04-03T23:16:38.800Z,9.80
2017-04-03T23:17:38.514Z,9.80
2017-04-03T23:18:38.189Z,9.80
2017-04-03T23:19:37.894Z,9.80
2017-04-03T23:20:37.618Z,9.80
2017-04-03T23:21:37.321Z,9.80
2017-04-03T23:22:37.081Z,9.80
2017-04-03T23:23:36.774Z,9.80
2017-04-03T23:24:36.464Z,9.80
2017-04-03T23:25:36.288Z,9.80
2017-04-03T23:26:36.017Z,9.80
2017-04-03T23:27:35.770Z,9.90
2017-04-03T23:28:35.524Z,9.90
2017-04-03T23:29:35.260Z,9.90
2017-04-03T23:30:35.040Z,9.90
2017-04-03T23:31:34.800Z,9.90
2017-04-03T23:32:34.504Z,9.80
2017-04-03T23:33:34.290Z,9.90
2017-04-03T23:34:34.001Z,9.90
2017-04-03T23:35:33.666Z,9.80
2017-04-03T23:36:33.411Z,9.80
2017-04-03T23:37:33.280Z,9.80
2017-04-03T23:38:33.016Z,9.80
2017-04-03T23:39:32.789Z,9.80
2017-04-03T23:40:32.752Z,9.90
2017-04-03T23:41:32.553Z,9.90
2017-04-03T23:42:32.305Z,9.90
2017-04-03T23:43:32.021Z,9.90
2017-04-03T23:44:31.688Z,9.90
2017-04-03T23:45:31.439Z,9.90
2017-04-03T23:46:31.954Z,9.90
2017-04-03T23:47:32.425Z,9.90
2017-04-03T23:48:32.144Z,9.90
2017-04-03T23:49:31.918Z,9.90
2017-04-03T23:50:31.643Z,9.90
2017-04-03T23:51:31.438Z,9.90
2017-04-03T23:52:31.150Z,9.90
2017-04-03T23:53:30.869Z,9.90
2017-04-03T23:54:31.326Z,9.90
2017-04-03T23:55:31.026Z,9.90
2017-04-03T23:56:30.834Z,9.90
2017-04-03T23:57:30.591Z,9.90
2017-04-03T23:58:30.300Z,9.90
2017-04-03T23:59:30.004Z,9.90
